sensor_id;sensor_type;location;lat;lon;timestamp;P1;durP1;ratioP1;P2;durP2;ratioP2
12224;SDS011;6175;50.956;11.064;2023-02-22T00:00:10;6.22;;;4.53;;
12224;SDS011;6175;50.956;11.064;2023-02-22T00:02:47;6.00;;;4.57;;
12224;SDS011;6175;50.956;11.064;2023-02-22T00:05:14;4.47;;;3.80;;
12224;SDS011;6175;50.956;11.064;2023-02-22T00:07:44;5.30;;;4.05;;
12224;SDS011;6175;50.956;11.064;2023-02-22T00:10:13;5.07;;;4.13;;
12224;SDS011;6175;50.956;11.064;2023-02-22T00:12:44;5.80;;;4.60;;
12224;SDS011;6175;50.956;11.064;2023-02-22T00:15:13;5.13;;;4.07;;
12224;SDS011;6175;50.956;11.064;2023-02-22T00:17:40;6.28;;;4.75;;
12224;SDS011;6175;50.956;11.064;2023-02-22T00:20:08;5.25;;;4.40;;
12224;SDS011;6175;50.956;11.064;2023-02-22T00:22:38;4.80;;;3.88;;
12224;SDS011;6175;50.956;11.064;2023-02-22T00:25:05;5.18;;;4.50;;
12224;SDS011;6175;50.956;11.064;2023-02-22T00:27:35;5.30;;;4.47;;
12224;SDS011;6175;50.956;11.064;2023-02-22T00:30:03;6.60;;;4.70;;
12224;SDS011;6175;50.956;11.064;2023-02-22T00:32:31;5.03;;;4.45;;
12224;SDS011;6175;50.956;11.064;2023-02-22T00:34:58;6.95;;;5.07;;
12224;SDS011;6175;50.956;11.064;2023-02-22T00:37:25;6.05;;;5.03;;
12224;SDS011;6175;50.956;11.064;2023-02-22T00:39:55;6.13;;;4.75;;
12224;SDS011;6175;50.956;11.064;2023-02-22T00:42:22;9.30;;;5.47;;
12224;SDS011;6175;50.956;11.064;2023-02-22T00:44:51;8.25;;;5.65;;
12224;SDS011;6175;50.956;11.064;2023-02-22T00:47:18;5.75;;;4.95;;
12224;SDS011;6175;50.956;11.064;2023-02-22T00:49:45;6.13;;;4.97;;
12224;SDS011;6175;50.956;11.064;2023-02-22T00:52:12;5.00;;;4.00;;
12224;SDS011;6175;50.956;11.064;2023-02-22T00:54:39;6.35;;;4.72;;
12224;SDS011;6175;50.956;11.064;2023-02-22T00:57:07;6.03;;;5.00;;
12224;SDS011;6175;50.956;11.064;2023-02-22T00:59:34;5.95;;;4.45;;
12224;SDS011;6175;50.956;11.064;2023-02-22T01:02:02;7.47;;;4.72;;
12224;SDS011;6175;50.956;11.064;2023-02-22T01:04:30;7.07;;;5.18;;
12224;SDS011;6175;50.956;11.064;2023-02-22T01:06:57;7.35;;;4.78;;
12224;SDS011;6175;50.956;11.064;2023-02-22T01:09:24;6.97;;;4.75;;
12224;SDS011;6175;50.956;11.064;2023-02-22T01:11:52;8.27;;;5.75;;
12224;SDS011;6175;50.956;11.064;2023-02-22T01:14:20;6.90;;;5.32;;
12224;SDS011;6175;50.956;11.064;2023-02-22T01:16:47;6.38;;;5.35;;
12224;SDS011;6175;50.956;11.064;2023-02-22T01:19:16;8.80;;;5.07;;
12224;SDS011;6175;50.956;11.064;2023-02-22T01:21:43;6.40;;;5.20;;
12224;SDS011;6175;50.956;11.064;2023-02-22T01:24:11;6.97;;;5.43;;
12224;SDS011;6175;50.956;11.064;2023-02-22T01:26:40;6.25;;;5.13;;
12224;SDS011;6175;50.956;11.064;2023-02-22T01:29:07;6.35;;;4.65;;
12224;SDS011;6175;50.956;11.064;2023-02-22T01:31:39;6.80;;;5.28;;
12224;SDS011;6175;50.956;11.064;2023-02-22T01:34:08;6.03;;;4.85;;
12224;SDS011;6175;50.956;11.064;2023-02-22T01:36:36;8.05;;;4.95;;
12224;SDS011;6175;50.956;11.064;2023-02-22T01:39:04;7.72;;;4.82;;
12224;SDS011;6175;50.956;11.064;2023-02-22T01:41:31;6.82;;;4.45;;
12224;SDS011;6175;50.956;11.064;2023-02-22T01:46:43;5.72;;;4.20;;
12224;SDS011;6175;50.956;11.064;2023-02-22T01:49:11;7.80;;;5.22;;
12224;SDS011;6175;50.956;11.064;2023-02-22T01:51:42;8.52;;;5.22;;
12224;SDS011;6175;50.956;11.064;2023-02-22T01:54:12;7.70;;;4.95;;
12224;SDS011;6175;50.956;11.064;2023-02-22T01:56:44;6.57;;;4.53;;
12224;SDS011;6175;50.956;11.064;2023-02-22T01:59:18;6.63;;;4.55;;
12224;SDS011;6175;50.956;11.064;2023-02-22T02:01:47;6.05;;;4.38;;
12224;SDS011;6175;50.956;11.064;2023-02-22T02:04:16;5.57;;;4.13;;
12224;SDS011;6175;50.956;11.064;2023-02-22T02:06:50;6.40;;;4.40;;
12224;SDS011;6175;50.956;11.064;2023-02-22T02:09:19;5.47;;;3.83;;
12224;SDS011;6175;50.956;11.064;2023-02-22T02:11:47;6.55;;;3.75;;
12224;SDS011;6175;50.956;11.064;2023-02-22T02:14:15;4.30;;;3.90;;
12224;SDS011;6175;50.956;11.064;2023-02-22T02:16:43;5.43;;;4.20;;
12224;SDS011;6175;50.956;11.064;2023-02-22T02:19:15;6.05;;;4.32;;
12224;SDS011;6175;50.956;11.064;2023-02-22T02:22:12;5.95;;;3.95;;
12224;SDS011;6175;50.956;11.064;2023-02-22T02:27:55;6.35;;;3.95;;
12224;SDS011;6175;50.956;11.064;2023-02-22T02:33:33;7.15;;;4.53;;
12224;SDS011;6175;50.956;11.064;2023-02-22T02:36:05;4.80;;;3.90;;
12224;SDS011;6175;50.956;11.064;2023-02-22T02:38:40;4.60;;;3.80;;
12224;SDS011;6175;50.956;11.064;2023-02-22T02:41:12;5.28;;;4.15;;
12224;SDS011;6175;50.956;11.064;2023-02-22T02:43:45;4.07;;;3.28;;
12224;SDS011;6175;50.956;11.064;2023-02-22T02:46:18;6.35;;;4.50;;
12224;SDS011;6175;50.956;11.064;2023-02-22T02:48:52;5.40;;;4.03;;
12224;SDS011;6175;50.956;11.064;2023-02-22T02:51:22;6.32;;;4.38;;
12224;SDS011;6175;50.956;11.064;2023-02-22T02:53:51;7.07;;;4.35;;
12224;SDS011;6175;50.956;11.064;2023-02-22T02:56:19;5.15;;;3.83;;
12224;SDS011;6175;50.956;11.064;2023-02-22T02:58:48;4.43;;;3.55;;
12224;SDS011;6175;50.956;11.064;2023-02-22T03:01:19;5.22;;;4.13;;
12224;SDS011;6175;50.956;11.064;2023-02-22T03:04:05;4.53;;;3.53;;
12224;SDS011;6175;50.956;11.064;2023-02-22T03:06:57;5.30;;;4.10;;
12224;SDS011;6175;50.956;11.064;2023-02-22T03:09:37;4.65;;;3.28;;
12224;SDS011;6175;50.956;11.064;2023-02-22T03:12:14;4.75;;;3.30;;
12224;SDS011;6175;50.956;11.064;2023-02-22T03:14:51;5.18;;;3.83;;
12224;SDS011;6175;50.956;11.064;2023-02-22T03:17:36;7.68;;;4.80;;
12224;SDS011;6175;50.956;11.064;2023-02-22T03:20:13;6.38;;;4.13;;
12224;SDS011;6175;50.956;11.064;2023-02-22T03:22:47;5.55;;;3.92;;
12224;SDS011;6175;50.956;11.064;2023-02-22T03:25:21;4.75;;;3.78;;
12224;SDS011;6175;50.956;11.064;2023-02-22T03:27:53;4.80;;;3.70;;
12224;SDS011;6175;50.956;11.064;2023-02-22T03:30:27;5.97;;;3.92;;
12224;SDS011;6175;50.956;11.064;2023-02-22T03:32:58;4.35;;;3.45;;
12224;SDS011;6175;50.956;11.064;2023-02-22T03:35:28;4.28;;;3.30;;
12224;SDS011;6175;50.956;11.064;2023-02-22T03:38:01;6.07;;;4.00;;
12224;SDS011;6175;50.956;11.064;2023-02-22T03:40:32;4.85;;;3.58;;
12224;SDS011;6175;50.956;11.064;2023-02-22T03:43:02;4.43;;;3.42;;
12224;SDS011;6175;50.956;11.064;2023-02-22T03:45:32;3.85;;;3.17;;
12224;SDS011;6175;50.956;11.064;2023-02-22T03:48:03;4.13;;;3.10;;
12224;SDS011;6175;50.956;11.064;2023-02-22T03:50:41;8.20;;;4.68;;
12224;SDS011;6175;50.956;11.064;2023-02-22T03:53:08;6.03;;;4.45;;
12224;SDS011;6175;50.956;11.064;2023-02-22T03:55:37;5.30;;;3.83;;
12224;SDS011;6175;50.956;11.064;2023-02-22T03:58:04;4.90;;;3.67;;
12224;SDS011;6175;50.956;11.064;2023-02-22T04:00:35;5.93;;;4.45;;
12224;SDS011;6175;50.956;11.064;2023-02-22T04:03:02;5.78;;;4.13;;
12224;SDS011;6175;50.956;11.064;2023-02-22T04:05:29;5.78;;;4.07;;
12224;SDS011;6175;50.956;11.064;2023-02-22T04:07:58;5.40;;;3.83;;
12224;SDS011;6175;50.956;11.064;2023-02-22T04:10:25;4.70;;;3.45;;
12224;SDS011;6175;50.956;11.064;2023-02-22T04:12:52;4.32;;;3.53;;
12224;SDS011;6175;50.956;11.064;2023-02-22T04:15:20;3.80;;;3.30;;
12224;SDS011;6175;50.956;11.064;2023-02-22T04:17:51;4.32;;;3.38;;
12224;SDS011;6175;50.956;11.064;2023-02-22T04:20:18;4.35;;;3.45;;
12224;SDS011;6175;50.956;11.064;2023-02-22T04:22:49;6.55;;;4.15;;
12224;SDS011;6175;50.956;11.064;2023-02-22T04:25:18;4.90;;;3.67;;
12224;SDS011;6175;50.956;11.064;2023-02-22T04:27:45;5.97;;;3.95;;
12224;SDS011;6175;50.956;11.064;2023-02-22T04:30:12;5.35;;;4.32;;
12224;SDS011;6175;50.956;11.064;2023-02-22T04:32:39;4.40;;;3.63;;
12224;SDS011;6175;50.956;11.064;2023-02-22T04:35:06;5.25;;;3.85;;
12224;SDS011;6175;50.956;11.064;2023-02-22T04:37:34;4.63;;;3.80;;
12224;SDS011;6175;50.956;11.064;2023-02-22T04:40:01;4.22;;;3.72;;
12224;SDS011;6175;50.956;11.064;2023-02-22T04:42:33;7.50;;;4.93;;
12224;SDS011;6175;50.956;11.064;2023-02-22T04:45:00;4.57;;;3.85;;
12224;SDS011;6175;50.956;11.064;2023-02-22T04:47:27;5.28;;;4.03;;
12224;SDS011;6175;50.956;11.064;2023-02-22T04:49:54;5.95;;;4.20;;
12224;SDS011;6175;50.956;11.064;2023-02-22T04:52:21;5.38;;;4.38;;
12224;SDS011;6175;50.956;11.064;2023-02-22T04:54:48;5.43;;;4.25;;
12224;SDS011;6175;50.956;11.064;2023-02-22T04:57:15;5.63;;;4.43;;
12224;SDS011;6175;50.956;11.064;2023-02-22T04:59:44;5.75;;;4.32;;
12224;SDS011;6175;50.956;11.064;2023-02-22T05:02:11;5.45;;;3.90;;
12224;SDS011;6175;50.956;11.064;2023-02-22T05:04:38;6.13;;;4.55;;
12224;SDS011;6175;50.956;11.064;2023-02-22T05:07:05;5.95;;;4.75;;
12224;SDS011;6175;50.956;11.064;2023-02-22T05:09:32;5.80;;;4.60;;
12224;SDS011;6175;50.956;11.064;2023-02-22T05:11:59;6.40;;;4.50;;
12224;SDS011;6175;50.956;11.064;2023-02-22T05:14:26;5.72;;;4.43;;
12224;SDS011;6175;50.956;11.064;2023-02-22T05:16:57;5.25;;;4.35;;
12224;SDS011;6175;50.956;11.064;2023-02-22T05:19:24;5.15;;;4.10;;
12224;SDS011;6175;50.956;11.064;2023-02-22T05:21:52;4.72;;;4.03;;
12224;SDS011;6175;50.956;11.064;2023-02-22T05:24:20;6.05;;;4.22;;
12224;SDS011;6175;50.956;11.064;2023-02-22T05:26:48;6.00;;;4.18;;
12224;SDS011;6175;50.956;11.064;2023-02-22T05:29:17;5.72;;;4.20;;
12224;SDS011;6175;50.956;11.064;2023-02-22T05:31:44;6.50;;;4.90;;
12224;SDS011;6175;50.956;11.064;2023-02-22T05:34:12;7.03;;;4.40;;
12224;SDS011;6175;50.956;11.064;2023-02-22T05:36:40;6.05;;;4.70;;
12224;SDS011;6175;50.956;11.064;2023-02-22T05:39:07;5.00;;;3.83;;
12224;SDS011;6175;50.956;11.064;2023-02-22T05:41:34;5.95;;;4.38;;
12224;SDS011;6175;50.956;11.064;2023-02-22T05:44:02;5.75;;;4.72;;
12224;SDS011;6175;50.956;11.064;2023-02-22T05:46:29;6.38;;;4.70;;
12224;SDS011;6175;50.956;11.064;2023-02-22T05:48:56;6.18;;;4.45;;
12224;SDS011;6175;50.956;11.064;2023-02-22T05:51:25;5.75;;;4.65;;
12224;SDS011;6175;50.956;11.064;2023-02-22T05:53:52;7.13;;;4.97;;
12224;SDS011;6175;50.956;11.064;2023-02-22T05:56:19;5.45;;;4.07;;
12224;SDS011;6175;50.956;11.064;2023-02-22T05:58:46;6.85;;;4.65;;
12224;SDS011;6175;50.956;11.064;2023-02-22T06:01:14;5.82;;;4.55;;
12224;SDS011;6175;50.956;11.064;2023-02-22T06:03:41;5.90;;;4.47;;
12224;SDS011;6175;50.956;11.064;2023-02-22T06:06:08;4.57;;;3.85;;
12224;SDS011;6175;50.956;11.064;2023-02-22T06:08:36;5.20;;;4.47;;
12224;SDS011;6175;50.956;11.064;2023-02-22T06:11:03;7.07;;;4.85;;
12224;SDS011;6175;50.956;11.064;2023-02-22T06:13:30;5.72;;;4.53;;
12224;SDS011;6175;50.956;11.064;2023-02-22T06:15:58;6.05;;;4.18;;
12224;SDS011;6175;50.956;11.064;2023-02-22T06:18:25;5.32;;;4.22;;
12224;SDS011;6175;50.956;11.064;2023-02-22T06:20:54;6.88;;;5.15;;
12224;SDS011;6175;50.956;11.064;2023-02-22T06:23:21;6.47;;;4.72;;
12224;SDS011;6175;50.956;11.064;2023-02-22T06:25:50;6.88;;;4.47;;
12224;SDS011;6175;50.956;11.064;2023-02-22T06:28:17;6.55;;;4.40;;
12224;SDS011;6175;50.956;11.064;2023-02-22T06:30:44;5.20;;;4.25;;
12224;SDS011;6175;50.956;11.064;2023-02-22T06:33:11;7.00;;;4.90;;
12224;SDS011;6175;50.956;11.064;2023-02-22T06:35:38;5.78;;;4.38;;
12224;SDS011;6175;50.956;11.064;2023-02-22T06:38:05;6.65;;;5.32;;
12224;SDS011;6175;50.956;11.064;2023-02-22T06:40:32;6.18;;;4.57;;
12224;SDS011;6175;50.956;11.064;2023-02-22T06:43:02;8.13;;;5.00;;
12224;SDS011;6175;50.956;11.064;2023-02-22T06:45:29;6.82;;;5.20;;
12224;SDS011;6175;50.956;11.064;2023-02-22T06:47:56;6.60;;;4.85;;
12224;SDS011;6175;50.956;11.064;2023-02-22T06:50:24;7.15;;;4.80;;
12224;SDS011;6175;50.956;11.064;2023-02-22T06:52:54;5.82;;;4.63;;
12224;SDS011;6175;50.956;11.064;2023-02-22T06:55:22;5.88;;;4.57;;
12224;SDS011;6175;50.956;11.064;2023-02-22T06:57:50;9.50;;;6.18;;
12224;SDS011;6175;50.956;11.064;2023-02-22T07:00:20;7.65;;;5.50;;
12224;SDS011;6175;50.956;11.064;2023-02-22T07:02:48;8.93;;;5.57;;
12224;SDS011;6175;50.956;11.064;2023-02-22T07:05:16;9.35;;;5.75;;
12224;SDS011;6175;50.956;11.064;2023-02-22T07:07:44;7.63;;;5.60;;
12224;SDS011;6175;50.956;11.064;2023-02-22T07:10:16;8.00;;;5.32;;
12224;SDS011;6175;50.956;11.064;2023-02-22T07:12:46;6.40;;;5.00;;
12224;SDS011;6175;50.956;11.064;2023-02-22T07:15:14;7.95;;;5.30;;
12224;SDS011;6175;50.956;11.064;2023-02-22T07:17:43;7.20;;;5.30;;
12224;SDS011;6175;50.956;11.064;2023-02-22T07:20:10;6.78;;;5.07;;
12224;SDS011;6175;50.956;11.064;2023-02-22T07:22:37;6.75;;;5.13;;
12224;SDS011;6175;50.956;11.064;2023-02-22T07:25:05;6.93;;;5.15;;
12224;SDS011;6175;50.956;11.064;2023-02-22T07:27:34;6.65;;;5.28;;
12224;SDS011;6175;50.956;11.064;2023-02-22T07:30:02;7.25;;;5.40;;
12224;SDS011;6175;50.956;11.064;2023-02-22T07:32:29;7.55;;;5.50;;
12224;SDS011;6175;50.956;11.064;2023-02-22T07:34:58;9.13;;;5.63;;
12224;SDS011;6175;50.956;11.064;2023-02-22T07:37:26;7.60;;;5.45;;
12224;SDS011;6175;50.956;11.064;2023-02-22T07:39:54;7.80;;;5.30;;
12224;SDS011;6175;50.956;11.064;2023-02-22T07:42:21;7.20;;;5.38;;
12224;SDS011;6175;50.956;11.064;2023-02-22T07:44:48;8.02;;;6.25;;
12224;SDS011;6175;50.956;11.064;2023-02-22T07:47:16;7.80;;;6.13;;
12224;SDS011;6175;50.956;11.064;2023-02-22T07:49:44;9.45;;;6.72;;
12224;SDS011;6175;50.956;11.064;2023-02-22T07:52:13;9.43;;;7.00;;
12224;SDS011;6175;50.956;11.064;2023-02-22T07:54:41;9.48;;;6.72;;
12224;SDS011;6175;50.956;11.064;2023-02-22T07:57:11;8.10;;;6.32;;
12224;SDS011;6175;50.956;11.064;2023-02-22T07:59:38;8.43;;;6.20;;
12224;SDS011;6175;50.956;11.064;2023-02-22T08:02:07;9.48;;;6.55;;
12224;SDS011;6175;50.956;11.064;2023-02-22T08:04:40;11.02;;;7.63;;
12224;SDS011;6175;50.956;11.064;2023-02-22T08:07:07;9.68;;;6.63;;
12224;SDS011;6175;50.956;11.064;2023-02-22T08:09:36;11.98;;;7.40;;
12224;SDS011;6175;50.956;11.064;2023-02-22T08:12:03;10.70;;;7.25;;
12224;SDS011;6175;50.956;11.064;2023-02-22T08:14:31;9.88;;;7.00;;
12224;SDS011;6175;50.956;11.064;2023-02-22T08:16:58;8.70;;;6.80;;
12224;SDS011;6175;50.956;11.064;2023-02-22T08:19:25;10.57;;;7.63;;
12224;SDS011;6175;50.956;11.064;2023-02-22T08:21:52;8.55;;;7.13;;
12224;SDS011;6175;50.956;11.064;2023-02-22T08:24:19;12.80;;;8.27;;
12224;SDS011;6175;50.956;11.064;2023-02-22T08:26:48;10.85;;;7.50;;
12224;SDS011;6175;50.956;11.064;2023-02-22T08:29:15;12.70;;;8.32;;
12224;SDS011;6175;50.956;11.064;2023-02-22T08:31:42;11.48;;;8.32;;
12224;SDS011;6175;50.956;11.064;2023-02-22T08:34:18;12.60;;;7.90;;
12224;SDS011;6175;50.956;11.064;2023-02-22T08:36:45;10.88;;;7.50;;
12224;SDS011;6175;50.956;11.064;2023-02-22T08:39:13;10.35;;;7.63;;
12224;SDS011;6175;50.956;11.064;2023-02-22T08:41:40;10.35;;;7.20;;
12224;SDS011;6175;50.956;11.064;2023-02-22T08:44:09;9.43;;;7.05;;
12224;SDS011;6175;50.956;11.064;2023-02-22T08:46:36;10.55;;;7.15;;
12224;SDS011;6175;50.956;11.064;2023-02-22T08:49:03;11.65;;;7.50;;
12224;SDS011;6175;50.956;11.064;2023-02-22T08:51:33;11.35;;;7.65;;
12224;SDS011;6175;50.956;11.064;2023-02-22T08:54:00;13.00;;;7.72;;
12224;SDS011;6175;50.956;11.064;2023-02-22T08:56:28;9.40;;;6.95;;
12224;SDS011;6175;50.956;11.064;2023-02-22T08:58:55;9.75;;;7.18;;
12224;SDS011;6175;50.956;11.064;2023-02-22T09:01:24;10.65;;;6.82;;
12224;SDS011;6175;50.956;11.064;2023-02-22T09:03:53;9.63;;;7.55;;
12224;SDS011;6175;50.956;11.064;2023-02-22T09:06:21;11.25;;;7.05;;
12224;SDS011;6175;50.956;11.064;2023-02-22T09:08:48;7.60;;;6.63;;
12224;SDS011;6175;50.956;11.064;2023-02-22T09:11:15;9.75;;;6.88;;
12224;SDS011;6175;50.956;11.064;2023-02-22T09:13:43;8.20;;;6.80;;
12224;SDS011;6175;50.956;11.064;2023-02-22T09:16:10;8.68;;;6.63;;
12224;SDS011;6175;50.956;11.064;2023-02-22T09:18:39;8.32;;;6.50;;
12224;SDS011;6175;50.956;11.064;2023-02-22T09:21:06;9.98;;;7.43;;
12224;SDS011;6175;50.956;11.064;2023-02-22T09:23:34;9.15;;;6.57;;
12224;SDS011;6175;50.956;11.064;2023-02-22T09:26:01;8.90;;;6.70;;
12224;SDS011;6175;50.956;11.064;2023-02-22T09:28:28;9.52;;;6.38;;
12224;SDS011;6175;50.956;11.064;2023-02-22T09:30:55;8.10;;;6.40;;
12224;SDS011;6175;50.956;11.064;2023-02-22T09:33:22;8.95;;;6.63;;
12224;SDS011;6175;50.956;11.064;2023-02-22T09:35:52;12.38;;;7.68;;
12224;SDS011;6175;50.956;11.064;2023-02-22T09:38:20;10.52;;;7.18;;
12224;SDS011;6175;50.956;11.064;2023-02-22T09:40:51;9.98;;;7.68;;
12224;SDS011;6175;50.956;11.064;2023-02-22T09:43:23;11.23;;;7.57;;
12224;SDS011;6175;50.956;11.064;2023-02-22T09:46:01;9.23;;;7.20;;
12224;SDS011;6175;50.956;11.064;2023-02-22T09:48:38;11.50;;;7.90;;
12224;SDS011;6175;50.956;11.064;2023-02-22T09:51:18;11.57;;;8.38;;
12224;SDS011;6175;50.956;11.064;2023-02-22T09:53:50;10.60;;;7.63;;
12224;SDS011;6175;50.956;11.064;2023-02-22T09:56:21;8.00;;;6.40;;
12224;SDS011;6175;50.956;11.064;2023-02-22T09:58:53;8.95;;;7.55;;
12224;SDS011;6175;50.956;11.064;2023-02-22T10:01:25;10.25;;;7.82;;
12224;SDS011;6175;50.956;11.064;2023-02-22T10:03:55;9.43;;;7.50;;
12224;SDS011;6175;50.956;11.064;2023-02-22T10:06:28;8.75;;;6.45;;
12224;SDS011;6175;50.956;11.064;2023-02-22T10:08:56;10.85;;;7.57;;
12224;SDS011;6175;50.956;11.064;2023-02-22T10:11:31;11.02;;;7.80;;
12224;SDS011;6175;50.956;11.064;2023-02-22T10:14:11;9.25;;;7.32;;
12224;SDS011;6175;50.956;11.064;2023-02-22T10:17:01;10.25;;;7.47;;
12224;SDS011;6175;50.956;11.064;2023-02-22T10:19:35;12.43;;;8.32;;
12224;SDS011;6175;50.956;11.064;2023-02-22T10:25:05;7.60;;;6.43;;
12224;SDS011;6175;50.956;11.064;2023-02-22T10:27:38;7.30;;;4.65;;
12224;SDS011;6175;50.956;11.064;2023-02-22T10:30:07;4.38;;;3.70;;
12224;SDS011;6175;50.956;11.064;2023-02-22T10:32:42;5.30;;;4.30;;
12224;SDS011;6175;50.956;11.064;2023-02-22T10:35:16;4.53;;;4.13;;
12224;SDS011;6175;50.956;11.064;2023-02-22T10:37:48;4.72;;;3.67;;
12224;SDS011;6175;50.956;11.064;2023-02-22T10:40:19;5.25;;;4.20;;
12224;SDS011;6175;50.956;11.064;2023-02-22T10:42:55;5.32;;;4.38;;
12224;SDS011;6175;50.956;11.064;2023-02-22T10:45:25;5.82;;;4.45;;
12224;SDS011;6175;50.956;11.064;2023-02-22T10:47:54;5.88;;;4.05;;
12224;SDS011;6175;50.956;11.064;2023-02-22T10:50:23;5.35;;;3.97;;
12224;SDS011;6175;50.956;11.064;2023-02-22T10:52:52;5.47;;;4.53;;
12224;SDS011;6175;50.956;11.064;2023-02-22T10:55:19;5.80;;;3.90;;
12224;SDS011;6175;50.956;11.064;2023-02-22T10:57:47;5.25;;;4.13;;
12224;SDS011;6175;50.956;11.064;2023-02-22T11:00:17;4.75;;;4.05;;
12224;SDS011;6175;50.956;11.064;2023-02-22T11:02:50;5.72;;;4.75;;
12224;SDS011;6175;50.956;11.064;2023-02-22T11:05:32;5.70;;;4.57;;
12224;SDS011;6175;50.956;11.064;2023-02-22T11:08:17;5.57;;;4.45;;
12224;SDS011;6175;50.956;11.064;2023-02-22T11:10:50;6.10;;;4.78;;
12224;SDS011;6175;50.956;11.064;2023-02-22T11:13:22;5.35;;;4.22;;
12224;SDS011;6175;50.956;11.064;2023-02-22T11:15:50;6.65;;;4.82;;
12224;SDS011;6175;50.956;11.064;2023-02-22T11:18:21;5.28;;;4.55;;
12224;SDS011;6175;50.956;11.064;2023-02-22T11:20:58;6.40;;;4.68;;
12224;SDS011;6175;50.956;11.064;2023-02-22T11:23:28;5.05;;;4.55;;
12224;SDS011;6175;50.956;11.064;2023-02-22T11:25:59;5.00;;;4.53;;
12224;SDS011;6175;50.956;11.064;2023-02-22T11:28:27;6.97;;;4.82;;
12224;SDS011;6175;50.956;11.064;2023-02-22T11:30:57;6.20;;;4.20;;
12224;SDS011;6175;50.956;11.064;2023-02-22T11:33:34;4.70;;;4.20;;
12224;SDS011;6175;50.956;11.064;2023-02-22T11:36:02;3.95;;;3.42;;
12224;SDS011;6175;50.956;11.064;2023-02-22T11:38:34;3.72;;;3.38;;
12224;SDS011;6175;50.956;11.064;2023-02-22T11:41:12;5.10;;;4.30;;
12224;SDS011;6175;50.956;11.064;2023-02-22T11:43:40;5.28;;;4.78;;
12224;SDS011;6175;50.956;11.064;2023-02-22T11:46:10;4.70;;;4.03;;
12224;SDS011;6175;50.956;11.064;2023-02-22T11:48:38;5.03;;;4.53;;
12224;SDS011;6175;50.956;11.064;2023-02-22T11:51:15;4.63;;;4.20;;
12224;SDS011;6175;50.956;11.064;2023-02-22T11:53:49;4.90;;;3.70;;
12224;SDS011;6175;50.956;11.064;2023-02-22T11:56:21;4.47;;;3.92;;
12224;SDS011;6175;50.956;11.064;2023-02-22T11:58:51;4.03;;;3.58;;
12224;SDS011;6175;50.956;11.064;2023-02-22T12:01:28;4.18;;;3.55;;
12224;SDS011;6175;50.956;11.064;2023-02-22T12:07:19;3.83;;;3.47;;
12224;SDS011;6175;50.956;11.064;2023-02-22T12:09:58;5.00;;;3.50;;
12224;SDS011;6175;50.956;11.064;2023-02-22T12:12:29;6.45;;;3.95;;
12224;SDS011;6175;50.956;11.064;2023-02-22T12:15:05;4.95;;;3.70;;
12224;SDS011;6175;50.956;11.064;2023-02-22T12:17:42;4.82;;;3.28;;
12224;SDS011;6175;50.956;11.064;2023-02-22T12:20:15;3.47;;;3.17;;
12224;SDS011;6175;50.956;11.064;2023-02-22T12:22:50;4.57;;;3.30;;
12224;SDS011;6175;50.956;11.064;2023-02-22T12:25:24;4.15;;;3.58;;
12224;SDS011;6175;50.956;11.064;2023-02-22T12:27:55;4.18;;;3.30;;
12224;SDS011;6175;50.956;11.064;2023-02-22T12:30:25;3.40;;;3.10;;
12224;SDS011;6175;50.956;11.064;2023-02-22T12:32:56;4.93;;;3.40;;
12224;SDS011;6175;50.956;11.064;2023-02-22T12:35:24;4.72;;;3.33;;
12224;SDS011;6175;50.956;11.064;2023-02-22T12:37:59;3.33;;;2.80;;
12224;SDS011;6175;50.956;11.064;2023-02-22T12:40:32;3.83;;;3.10;;
12224;SDS011;6175;50.956;11.064;2023-02-22T12:43:07;4.03;;;3.05;;
12224;SDS011;6175;50.956;11.064;2023-02-22T12:45:42;3.83;;;2.58;;
12224;SDS011;6175;50.956;11.064;2023-02-22T12:48:21;3.80;;;2.90;;
12224;SDS011;6175;50.956;11.064;2023-02-22T12:50:51;3.00;;;2.80;;
12224;SDS011;6175;50.956;11.064;2023-02-22T12:53:23;2.75;;;2.55;;
12224;SDS011;6175;50.956;11.064;2023-02-22T12:55:57;3.22;;;2.92;;
12224;SDS011;6175;50.956;11.064;2023-02-22T12:58:31;4.43;;;2.75;;
12224;SDS011;6175;50.956;11.064;2023-02-22T13:01:05;3.53;;;3.20;;
12224;SDS011;6175;50.956;11.064;2023-02-22T13:03:39;2.47;;;2.28;;
12224;SDS011;6175;50.956;11.064;2023-02-22T13:06:12;4.38;;;2.90;;
12224;SDS011;6175;50.956;11.064;2023-02-22T13:08:47;3.28;;;2.92;;
12224;SDS011;6175;50.956;11.064;2023-02-22T13:11:27;3.15;;;2.53;;
12224;SDS011;6175;50.956;11.064;2023-02-22T13:14:02;2.38;;;2.17;;
12224;SDS011;6175;50.956;11.064;2023-02-22T13:16:39;3.95;;;2.55;;
12224;SDS011;6175;50.956;11.064;2023-02-22T13:19:25;2.90;;;2.60;;
12224;SDS011;6175;50.956;11.064;2023-02-22T13:22:03;5.75;;;2.90;;
12224;SDS011;6175;50.956;11.064;2023-02-22T13:24:39;5.88;;;2.90;;
12224;SDS011;6175;50.956;11.064;2023-02-22T13:27:15;3.05;;;2.67;;
12224;SDS011;6175;50.956;11.064;2023-02-22T13:29:50;4.55;;;2.72;;
12224;SDS011;6175;50.956;11.064;2023-02-22T13:32:29;3.08;;;2.60;;
12224;SDS011;6175;50.956;11.064;2023-02-22T13:35:00;2.60;;;2.30;;
12224;SDS011;6175;50.956;11.064;2023-02-22T13:41:01;2.40;;;2.20;;
12224;SDS011;6175;50.956;11.064;2023-02-22T13:44:13;3.25;;;2.95;;
12224;SDS011;6175;50.956;11.064;2023-02-22T13:49:46;4.38;;;2.95;;
12224;SDS011;6175;50.956;11.064;2023-02-22T13:52:24;3.10;;;2.63;;
12224;SDS011;6175;50.956;11.064;2023-02-22T13:54:53;3.15;;;2.80;;
12224;SDS011;6175;50.956;11.064;2023-02-22T13:57:24;3.60;;;2.92;;
12224;SDS011;6175;50.956;11.064;2023-02-22T14:14:18;4.63;;;2.80;;
12224;SDS011;6175;50.956;11.064;2023-02-22T14:19:43;3.08;;;2.08;;
12224;SDS011;6175;50.956;11.064;2023-02-22T14:22:26;2.45;;;2.25;;
12224;SDS011;6175;50.956;11.064;2023-02-22T14:24:54;3.45;;;2.60;;
12224;SDS011;6175;50.956;11.064;2023-02-22T14:27:23;4.43;;;2.53;;
12224;SDS011;6175;50.956;11.064;2023-02-22T14:29:52;3.67;;;2.90;;
12224;SDS011;6175;50.956;11.064;2023-02-22T14:32:28;3.20;;;2.60;;
12224;SDS011;6175;50.956;11.064;2023-02-22T14:34:58;3.17;;;2.65;;
12224;SDS011;6175;50.956;11.064;2023-02-22T14:37:27;2.80;;;2.35;;
12224;SDS011;6175;50.956;11.064;2023-02-22T14:39:57;2.35;;;2.15;;
12224;SDS011;6175;50.956;11.064;2023-02-22T14:42:36;3.67;;;2.33;;
12224;SDS011;6175;50.956;11.064;2023-02-22T14:45:09;3.28;;;2.85;;
12224;SDS011;6175;50.956;11.064;2023-02-22T14:47:43;4.38;;;2.50;;
12224;SDS011;6175;50.956;11.064;2023-02-22T14:50:16;4.07;;;2.47;;
12224;SDS011;6175;50.956;11.064;2023-02-22T14:52:48;3.25;;;2.67;;
12224;SDS011;6175;50.956;11.064;2023-02-22T14:55:25;5.35;;;3.38;;
12224;SDS011;6175;50.956;11.064;2023-02-22T14:57:57;3.17;;;2.83;;
12224;SDS011;6175;50.956;11.064;2023-02-22T15:00:27;2.40;;;2.20;;
12224;SDS011;6175;50.956;11.064;2023-02-22T15:03:02;4.03;;;2.80;;
12224;SDS011;6175;50.956;11.064;2023-02-22T15:05:34;2.70;;;2.17;;
12224;SDS011;6175;50.956;11.064;2023-02-22T15:08:05;2.70;;;2.45;;
12224;SDS011;6175;50.956;11.064;2023-02-22T15:10:37;3.17;;;2.70;;
12224;SDS011;6175;50.956;11.064;2023-02-22T15:13:12;3.67;;;2.67;;
12224;SDS011;6175;50.956;11.064;2023-02-22T15:15:42;4.82;;;2.55;;
12224;SDS011;6175;50.956;11.064;2023-02-22T15:18:21;2.58;;;2.38;;
12224;SDS011;6175;50.956;11.064;2023-02-22T15:20:52;3.08;;;2.20;;
12224;SDS011;6175;50.956;11.064;2023-02-22T15:23:23;2.53;;;2.33;;
12224;SDS011;6175;50.956;11.064;2023-02-22T15:25:54;3.35;;;2.80;;
12224;SDS011;6175;50.956;11.064;2023-02-22T15:28:22;5.47;;;2.97;;
12224;SDS011;6175;50.956;11.064;2023-02-22T15:30:53;3.13;;;2.35;;
12224;SDS011;6175;50.956;11.064;2023-02-22T15:33:39;2.45;;;2.15;;
12224;SDS011;6175;50.956;11.064;2023-02-22T15:36:10;3.05;;;2.35;;
12224;SDS011;6175;50.956;11.064;2023-02-22T15:38:40;3.47;;;2.08;;
12224;SDS011;6175;50.956;11.064;2023-02-22T15:41:18;4.25;;;2.63;;
12224;SDS011;6175;50.956;11.064;2023-02-22T15:44:04;2.50;;;2.20;;